Rosboro, Arkansas
Current Conditions -  °F | °C
As of 5:56 PM on Saturday 22 Nov 2014 (Local Time) from KADF Reporting Station
Overcast Overcast  
Wind Chill: 61°   Ceiling: 3500
Heat Index: 61°   Visibility: 10mi
Dew Point: 57°   Wind: 0mph
Humidity: 86%   Direction: NA
Pressure: 29.96"   Gusts: NA
Location:  34.2417°N, 93.3579°W
Report Text: KADF 222356Z AUTO 00000KT 10SM BKN035 OVC046 16/14 A2996 RMK AO2 58004 T01610138 10216 20161 BKN V SCT SLP160
Loading
Personal Weather Stations






























Interactive Weather Map New forecast layout! Learn more

10-Day Weather Forecast

Advertisements
Track Severe Weather on mobile